createdAt,value
2022-09-25T00:02:56.931Z,7.10
2022-09-25T00:08:00.377Z,10.90
2022-09-25T00:13:03.783Z,8.40
2022-09-25T00:18:07.100Z,6.80
2022-09-25T00:23:10.507Z,5.90
2022-09-25T00:28:17.670Z,5.90
2022-09-25T00:33:21.638Z,5.20
2022-09-25T00:38:24.950Z,6.10
2022-09-25T00:43:50.886Z,6.80
2022-09-25T00:49:00.133Z,7.50
2022-09-25T00:54:06.842Z,7.90
2022-09-25T00:59:14.742Z,8.00
2022-09-25T01:04:18.665Z,6.50
2022-09-25T01:09:22.694Z,5.50
2022-09-25T01:14:27.232Z,6.30
2022-09-25T01:19:55.120Z,7.00
2022-09-25T01:25:17.376Z,6.30
2022-09-25T01:30:21.710Z,5.40
2022-09-25T01:41:06.122Z,4.80
2022-09-25T01:46:22.999Z,6.40
2022-09-25T01:51:50.422Z,7.00
2022-09-25T01:56:59.881Z,4.60
2022-09-25T02:02:06.334Z,5.50
2022-09-25T02:07:14.691Z,6.00
2022-09-25T02:12:26.808Z,4.60
2022-09-25T02:17:55.415Z,4.20
2022-09-25T02:23:11.546Z,4.80
2022-09-25T02:28:14.938Z,4.30
2022-09-25T02:33:18.351Z,4.30
2022-09-25T02:38:22.491Z,5.00
2022-09-25T02:44:03.177Z,5.50
2022-09-25T02:49:22.963Z,5.00
2022-09-25T02:54:36.003Z,5.00
2022-09-25T02:59:46.582Z,10.00
2022-09-25T03:04:51.635Z,5.30
2022-09-25T03:09:58.114Z,5.70
2022-09-25T03:15:01.431Z,5.20
2022-09-25T03:20:05.568Z,5.00
2022-09-25T03:25:09.178Z,5.60
2022-09-25T03:30:13.002Z,3.20
2022-09-25T03:35:16.216Z,5.30
2022-09-25T03:40:19.550Z,5.70
2022-09-25T03:45:23.140Z,7.40
2022-09-25T03:50:26.347Z,8.80
2022-09-25T03:55:29.759Z,5.20
2022-09-25T04:00:33.073Z,7.90
2022-09-25T04:05:36.492Z,6.90
2022-09-25T04:10:40.641Z,7.10
2022-09-25T04:15:44.133Z,8.90
2022-09-25T04:20:47.547Z,7.00
2022-09-25T04:25:50.751Z,8.50
2022-09-25T04:30:53.961Z,7.70
2022-09-25T04:35:57.272Z,10.50
2022-09-25T04:41:01.915Z,6.70
2022-09-25T04:46:07.766Z,6.90
2022-09-25T04:51:11.195Z,7.60
2022-09-25T04:56:16.291Z,5.70
2022-09-25T05:01:21.083Z,7.00
2022-09-25T05:06:24.512Z,6.70
2022-09-25T05:11:27.820Z,7.40
2022-09-25T05:16:31.075Z,6.30
2022-09-25T05:21:34.542Z,6.80
2022-09-25T05:26:38.263Z,6.60
2022-09-25T05:31:42.944Z,6.00
2022-09-25T05:36:46.218Z,6.40
2022-09-25T05:41:49.634Z,7.50
2022-09-25T05:46:52.845Z,7.50
2022-09-25T05:51:56.045Z,6.20
2022-09-25T05:56:59.356Z,6.40
2022-09-25T06:02:02.830Z,5.10
2022-09-25T06:07:06.389Z,5.60
2022-09-25T06:12:09.532Z,5.50
2022-09-25T06:17:12.908Z,6.40
2022-09-25T06:22:16.222Z,6.20
2022-09-25T06:27:19.426Z,4.90
2022-09-25T06:32:23.635Z,8.60
2022-09-25T06:42:30.073Z,4.70
2022-09-25T06:47:33.411Z,5.10
2022-09-25T06:52:43.666Z,4.40
2022-09-25T06:57:47.043Z,4.20
2022-09-25T07:03:08.851Z,4.60
2022-09-25T07:08:16.570Z,4.30
2022-09-25T07:13:24.959Z,3.80
2022-09-25T07:18:29.754Z,3.80
2022-09-25T07:23:34.112Z,4.20
2022-09-25T07:28:39.603Z,3.90
2022-09-25T07:33:43.618Z,3.80
2022-09-25T07:49:22.237Z,3.40
2022-09-25T07:54:26.060Z,3.50
2022-09-25T07:59:29.469Z,3.20
2022-09-25T08:04:32.885Z,3.90
2022-09-25T08:09:36.303Z,3.00
2022-09-25T08:14:40.019Z,3.20
2022-09-25T08:19:43.432Z,3.70
2022-09-25T08:24:46.642Z,3.00
2022-09-25T08:29:49.967Z,3.00
2022-09-25T08:34:54.495Z,2.80
2022-09-25T08:40:01.184Z,2.50
2022-09-25T08:45:31.728Z,3.10
2022-09-25T08:50:36.207Z,3.40
2022-09-25T08:56:00.880Z,2.80
2022-09-25T09:01:10.522Z,3.30
2022-09-25T09:06:16.331Z,3.30
2022-09-25T09:11:36.513Z,3.40
2022-09-25T09:16:45.865Z,2.80
2022-09-25T09:22:02.080Z,3.30
2022-09-25T09:27:11.431Z,3.70
2022-09-25T09:32:32.868Z,3.50
2022-09-25T09:38:05.472Z,3.90
2022-09-25T09:43:17.686Z,4.10
2022-09-25T09:48:25.403Z,4.70
2022-09-25T09:53:40.540Z,4.60
2022-09-25T09:58:51.784Z,4.00
2022-09-25T10:04:17.625Z,5.00
2022-09-25T10:09:21.143Z,3.80
2022-09-25T10:14:30.800Z,4.80
2022-09-25T10:19:49.366Z,5.40
2022-09-25T10:25:03.736Z,6.30
2022-09-25T10:30:16.057Z,5.50
2022-09-25T10:35:51.420Z,5.80
2022-09-25T10:41:05.382Z,4.90
2022-09-25T10:46:13.432Z,5.60
2022-09-25T10:51:21.619Z,4.90
2022-09-25T10:56:36.203Z,4.40
2022-09-25T11:01:43.145Z,4.00
2022-09-25T11:06:53.270Z,4.60
2022-09-25T11:12:13.988Z,5.20
2022-09-25T11:17:54.473Z,4.70
2022-09-25T11:23:18.977Z,5.10
2022-09-25T11:28:50.038Z,4.70
2022-09-25T11:34:12.910Z,4.40
2022-09-25T11:39:44.174Z,4.10
2022-09-25T11:45:22.813Z,4.20
2022-09-25T11:50:43.306Z,3.80
2022-09-25T11:56:07.629Z,3.50
2022-09-25T12:01:21.423Z,4.10
2022-09-25T12:06:55.417Z,3.60
2022-09-25T12:12:17.386Z,3.60
2022-09-25T12:17:33.378Z,4.30
2022-09-25T12:22:52.865Z,3.80
2022-09-25T12:28:01.816Z,3.60
2022-09-25T12:33:23.138Z,3.40
2022-09-25T12:38:44.780Z,4.40
2022-09-25T12:44:27.269Z,3.70
2022-09-25T12:49:35.227Z,3.60
2022-09-25T12:54:55.644Z,3.80
2022-09-25T13:00:09.605Z,3.80
2022-09-25T13:05:38.203Z,3.30
2022-09-25T13:10:52.677Z,4.60
2022-09-25T13:16:03.231Z,4.80
2022-09-25T13:21:25.206Z,4.20
2022-09-25T13:26:30.473Z,5.00
2022-09-25T13:31:37.378Z,4.70
2022-09-25T13:36:55.926Z,3.80
2022-09-25T13:42:04.180Z,3.60
2022-09-25T13:47:25.599Z,5.00
2022-09-25T13:52:31.051Z,6.40
2022-09-25T13:57:59.658Z,4.70
2022-09-25T14:03:03.955Z,4.30
2022-09-25T14:08:09.347Z,5.50
2022-09-25T14:13:17.165Z,5.00
2022-09-25T14:18:25.592Z,5.70
2022-09-25T14:23:33.586Z,9.20
2022-09-25T14:28:47.987Z,5.20
2022-09-25T14:34:30.105Z,5.00
2022-09-25T14:39:42.426Z,3.70
2022-09-25T14:45:04.477Z,8.30
2022-09-25T14:50:22.532Z,5.60
2022-09-25T14:55:29.427Z,5.90
2022-09-25T15:00:32.843Z,4.60
2022-09-25T15:05:37.811Z,3.90
2022-09-25T15:10:41.512Z,5.30
2022-09-25T15:16:13.043Z,4.50
2022-09-25T15:21:31.694Z,4.10
2022-09-25T15:26:41.518Z,5.30
2022-09-25T15:31:51.078Z,5.10
2022-09-25T15:36:54.696Z,5.20
2022-09-25T15:41:57.854Z,6.30
2022-09-25T15:47:02.442Z,7.60
2022-09-25T15:52:32.785Z,11.80
2022-09-25T15:57:36.811Z,11.70
2022-09-25T16:03:11.458Z,10.70
2022-09-25T16:08:18.150Z,9.80
2022-09-25T16:13:24.906Z,8.30
2022-09-25T16:18:32.414Z,8.80
2022-09-25T16:23:38.627Z,9.40
2022-09-25T16:28:50.334Z,8.60
2022-09-25T16:33:57.846Z,9.30
2022-09-25T16:39:10.331Z,11.00
2022-09-25T16:44:28.921Z,9.00
2022-09-25T16:49:35.117Z,8.70
2022-09-25T16:54:38.940Z,12.10
2022-09-25T16:59:42.249Z,15.10
2022-09-25T17:04:45.454Z,15.70
2022-09-25T17:09:49.281Z,15.10
2022-09-25T17:14:53.415Z,14.80
2022-09-25T17:25:02.838Z,16.80
2022-09-25T17:30:06.687Z,18.30
2022-09-25T17:40:31.239Z,14.90
2022-09-25T17:45:43.484Z,14.30
2022-09-25T17:50:46.794Z,14.60
2022-09-25T17:55:53.752Z,12.60
2022-09-25T18:01:02.222Z,14.60
2022-09-25T18:06:05.942Z,13.60
2022-09-25T18:11:11.409Z,11.80
2022-09-25T18:16:25.755Z,11.30
2022-09-25T18:21:47.926Z,8.90
2022-09-25T18:26:54.821Z,10.00
2022-09-25T18:31:58.438Z,11.20
2022-09-25T18:37:01.647Z,8.60
2022-09-25T18:42:05.348Z,6.50
2022-09-25T18:47:08.503Z,5.50
2022-09-25T18:52:12.091Z,5.90
2022-09-25T18:57:16.786Z,5.10
2022-09-25T19:02:25.715Z,5.00
2022-09-25T19:07:29.750Z,7.30
2022-09-25T19:12:33.055Z,13.70
2022-09-25T19:17:36.326Z,14.20
2022-09-25T19:22:41.379Z,14.00
2022-09-25T19:27:47.762Z,11.70
2022-09-25T19:32:51.276Z,11.00
2022-09-25T19:37:56.223Z,6.70
2022-09-25T19:43:01.377Z,5.60
2022-09-25T19:48:05.199Z,5.40
2022-09-25T19:53:08.513Z,5.10
2022-09-25T19:58:11.824Z,4.40
2022-09-25T20:03:15.122Z,4.80
2022-09-25T20:08:18.444Z,4.40
2022-09-25T20:13:21.857Z,4.50
2022-09-25T20:18:26.806Z,4.70
2022-09-25T20:23:30.118Z,4.30
2022-09-25T20:28:33.327Z,4.90
2022-09-25T20:33:37.514Z,5.20
2022-09-25T20:38:41.484Z,5.30
2022-09-25T20:43:44.998Z,4.90
2022-09-25T20:48:51.434Z,5.10
2022-09-25T20:54:00.322Z,5.60
2022-09-25T20:59:04.899Z,6.00
2022-09-25T21:04:10.159Z,7.20
2022-09-25T21:09:23.476Z,13.40
2022-09-25T21:14:28.903Z,9.30
2022-09-25T21:19:32.443Z,7.80
2022-09-25T21:24:36.173Z,7.10
2022-09-25T21:29:39.680Z,6.40
2022-09-25T21:34:42.887Z,6.10
2022-09-25T21:39:46.606Z,7.40
2022-09-25T21:44:50.531Z,7.40
2022-09-25T21:49:56.614Z,8.70
2022-09-25T21:55:00.227Z,8.60
2022-09-25T22:00:04.770Z,8.40
2022-09-25T22:05:08.498Z,8.40
2022-09-25T22:10:12.000Z,9.00
2022-09-25T22:15:15.315Z,8.70
2022-09-25T22:20:18.725Z,8.20
2022-09-25T22:25:22.138Z,8.40
2022-09-25T22:30:25.384Z,9.60
2022-09-25T22:35:28.761Z,7.80
2022-09-25T22:40:32.072Z,6.80
2022-09-25T22:45:35.392Z,7.00
2022-09-25T22:50:38.694Z,6.50
2022-09-25T22:55:42.004Z,6.40
2022-09-25T23:00:48.921Z,7.00
2022-09-25T23:05:52.160Z,8.40
2022-09-25T23:11:07.207Z,8.20
2022-09-25T23:16:39.480Z,7.90
2022-09-25T23:21:43.321Z,7.70
2022-09-25T23:26:46.513Z,7.60
2022-09-25T23:31:51.262Z,7.50
2022-09-25T23:36:54.672Z,7.40
2022-09-25T23:41:58.187Z,7.40
2022-09-25T23:47:01.603Z,7.40
2022-09-25T23:52:04.821Z,7.90
2022-09-25T23:57:08.086Z,7.50
